Time;durP1;ratioP1;P1;durP2;ratioP2;P2;SDS_P1;SDS_P2;PMS_P1;PMS_P2;Temp;Humidity;BMP_temperature;BMP_pressure;BME280_temperature;BME280_humidity;BME280_pressure;Samples;Min_cycle;Max_cycle;Signal;HPM_P1;HPM_P2
2022/01/10 00:01:50;;;;;;;119.40;51.20;;;;;;;-4.56;84.11;97673.06;105919;1280;138509;-82
2022/01/10 00:04:16;;;;;;;120.00;51.30;;;;;;;-4.57;83.30;97671.54;105889;1280;22613;-82
2022/01/10 00:06:43;;;;;;;113.10;47.50;;;;;;;-4.61;83.11;97678.67;105710;1280;138226;-81
2022/01/10 00:09:09;;;;;;;120.80;47.60;;;;;;;-4.59;83.53;97682.23;105921;1281;25401;-81
2022/01/10 00:11:35;;;;;;;117.80;48.80;;;;;;;-4.58;83.77;97685.96;105838;1279;25299;-80
2022/01/10 00:14:02;;;;;;;104.20;46.90;;;;;;;-4.56;83.95;97688.87;105571;1279;137406;-81
2022/01/10 00:16:28;;;;;;;122.80;51.60;;;;;;;-4.55;83.80;97701.86;105634;1281;22593;-82
2022/01/10 00:18:54;;;;;;;117.10;49.30;;;;;;;-4.57;83.22;97705.53;105568;1281;138489;-82
2022/01/10 00:21:20;;;;;;;113.60;47.80;;;;;;;-4.61;82.34;97703.01;105861;1281;22572;-82
2022/01/10 00:23:47;;;;;;;118.60;50.70;;;;;;;-4.67;82.35;97710.95;105762;1278;138524;-82
2022/01/10 00:26:13;;;;;;;122.10;47.10;;;;;;;-4.71;82.36;97721.42;106030;1277;25269;-82
2022/01/10 00:28:54;;;;;;;109.70;46.10;;;;;;;-4.73;82.45;97722.91;106080;1277;22770;-82
2022/01/10 00:31:20;;;;;;;125.40;50.70;;;;;;;-4.77;82.04;97730.44;105982;1278;137849;-82
2022/01/10 00:33:46;;;;;;;124.20;46.90;;;;;;;-4.81;82.06;97728.85;105981;1278;23931;-82
2022/01/10 00:36:13;;;;;;;120.60;48.70;;;;;;;-4.84;82.07;97730.54;105783;1281;137926;-81
2022/01/10 00:38:39;;;;;;;110.50;46.20;;;;;;;-4.86;81.76;97731.04;105886;1281;22593;-81
2022/01/10 00:41:05;;;;;;;112.50;46.70;;;;;;;-4.88;81.72;97727.55;105856;1281;24283;-81
2022/01/10 00:43:39;;;;;;;121.20;47.70;;;;;;;-4.90;81.89;97726.79;105708;1281;138383;-81
2022/01/10 00:46:06;;;;;;;116.10;48.90;;;;;;;-4.90;82.00;97731.61;105654;1277;22720;-82
2022/01/10 00:48:32;;;;;;;104.10;46.50;;;;;;;-4.90;82.42;97738.71;105614;1281;137550;-81
2022/01/10 00:50:59;;;;;;;122.60;47.00;;;;;;;-4.92;82.21;97738.38;105908;1281;25327;-81
2022/01/10 00:53:25;;;;;;;119.20;47.90;;;;;;;-4.96;82.20;97735.58;105942;1277;25261;-81
2022/01/10 00:55:52;;;;;;;113.30;50.50;;;;;;;-4.98;82.47;97737.84;106076;1277;137844;-81
2022/01/10 00:58:18;;;;;;;113.40;52.90;;;;;;;-5.00;82.88;97743.48;106126;1278;22567;-81
2022/01/10 01:00:46;;;;;;;119.90;50.30;;;;;;;-4.99;83.19;97744.84;105919;1278;138918;-81
2022/01/10 01:03:13;;;;;;;120.80;49.70;;;;;;;-4.99;83.17;97745.63;105943;1281;25523;-81
2022/01/10 01:05:42;;;;;;;93.10;39.20;;;;;;;-5.01;83.11;97749.44;105621;1281;22563;-83
2022/01/10 01:08:10;;;;;;;111.10;44.80;;;;;;;-5.07;82.88;97753.65;105329;1281;137535;-83
2022/01/10 01:24:07;;;;;;;108.40;45.90;;;;;;;-5.18;83.44;97755.48;105768;1281;137759;-84
2022/01/10 01:26:39;;;;;;;111.40;48.10;;;;;;;-5.19;83.78;97763.85;105843;1281;22550;-84
2022/01/10 01:29:08;;;;;;;110.90;47.50;;;;;;;-5.18;83.82;97767.65;105834;1281;22642;-84
2022/01/10 01:31:36;;;;;;;116.90;47.20;;;;;;;-5.17;83.92;97766.89;105741;1279;137986;-88
2022/01/10 01:34:03;;;;;;;117.00;50.30;;;;;;;-5.16;83.97;97772.73;105974;1281;24428;-87
2022/01/10 01:36:31;;;;;;;108.70;49.40;;;;;;;-5.17;83.87;97773.70;105786;1281;138671;-84
2022/01/10 01:38:59;;;;;;;113.40;47.40;;;;;;;-5.16;83.72;97781.23;106009;1280;22766;-84
2022/01/10 01:43:59;;;;;;;115.30;50.00;;;;;;;-5.11;83.98;97780.09;105770;1278;137613;-84
2022/01/10 01:46:26;;;;;;;111.30;45.90;;;;;;;-5.10;83.74;97780.52;106014;1281;22755;-85
2022/01/10 01:48:54;;;;;;;106.60;46.20;;;;;;;-5.13;83.37;97779.05;105781;1281;137966;-86
2022/01/10 01:51:24;;;;;;;117.70;46.10;;;;;;;-5.17;83.40;97780.13;105876;1281;24306;-86
2022/01/10 01:53:52;;;;;;;115.30;50.30;;;;;;;-5.23;83.13;97780.42;105630;1281;137850;-83
2022/01/10 01:56:20;;;;;;;105.70;48.20;;;;;;;-5.25;83.81;97780.04;106120;1280;23302;-82
2022/01/10 01:58:47;;;;;;;115.80;47.00;;;;;;;-5.23;83.76;97786.40;105821;1281;25256;-82
2022/01/10 02:01:16;;;;;;;113.00;47.80;;;;;;;-5.20;83.67;97786.45;105783;1281;139551;-82
2022/01/10 02:03:43;;;;;;;112.60;46.10;;;;;;;-5.15;83.84;97784.55;105980;1281;22568;-82
2022/01/10 02:06:12;;;;;;;111.50;44.80;;;;;;;-5.11;84.03;97783.27;105902;1281;137635;-83
2022/01/10 02:08:39;;;;;;;114.20;46.30;;;;;;;-5.07;83.93;97786.23;105873;1281;26508;-82
2022/01/10 02:11:07;;;;;;;113.00;46.90;;;;;;;-5.07;83.87;97792.88;106033;1281;22573;-82
2022/01/10 02:13:35;;;;;;;116.40;49.00;;;;;;;-5.10;83.39;97794.75;105720;1281;138505;-83
2022/01/10 02:16:08;;;;;;;100.90;45.90;;;;;;;-5.17;83.21;97795.13;105968;1281;22862;-82
2022/01/10 02:18:38;;;;;;;104.30;44.30;;;;;;;-5.20;83.32;97805.97;105965;1281;138181;-83
2022/01/10 02:21:05;;;;;;;105.30;45.70;;;;;;;-5.21;83.64;97801.76;105952;1281;22592;-82
2022/01/10 02:23:34;;;;;;;109.20;45.50;;;;;;;-5.19;83.95;97806.14;106073;1281;25416;-83
2022/01/10 02:26:09;;;;;;;109.50;44.50;;;;;;;-5.17;83.54;97809.13;106119;1281;137539;-82
2022/01/10 02:28:37;;;;;;;99.20;42.00;;;;;;;-5.16;83.46;97807.30;106257;1280;25625;-83
2022/01/10 02:31:03;;;;;;;103.90;43.80;;;;;;;-5.23;82.92;97810.88;106027;1281;137849;-83
2022/01/10 02:33:31;;;;;;;108.40;48.60;;;;;;;-5.32;83.22;97814.13;106294;1280;22549;-83
2022/01/10 02:36:14;;;;;;;105.00;47.90;;;;;;;-5.39;83.53;97820.23;106394;1281;139368;-83
2022/01/10 02:39:02;;;;;;;105.10;43.90;;;;;;;-5.42;83.43;97819.37;106110;1281;22604;-83
2022/01/10 02:41:32;;;;;;;102.80;44.00;;;;;;;-5.44;83.29;97818.82;106015;1279;22649;-83
2022/01/10 02:44:02;;;;;;;101.50;44.80;;;;;;;-5.46;83.47;97817.71;106152;1281;137861;-83
2022/01/10 02:46:32;;;;;;;106.10;44.00;;;;;;;-5.43;84.04;97821.25;106275;1280;23351;-83
2022/01/10 02:48:59;;;;;;;102.70;43.90;;;;;;;-5.39;84.38;97821.36;106057;1280;137757;-83
2022/01/10 02:51:26;;;;;;;96.90;43.80;;;;;;;-5.37;83.83;97823.95;106085;1280;22574;-83
2022/01/10 02:53:52;;;;;;;101.00;45.00;;;;;;;-5.38;83.49;97824.41;106009;1280;138087;-82
2022/01/10 02:56:18;;;;;;;90.90;41.50;;;;;;;-5.37;83.80;97827.14;106058;1277;22768;-83
2022/01/10 02:58:45;;;;;;;97.00;41.10;;;;;;;-5.33;83.99;97826.20;106170;1277;25626;-83
2022/01/10 03:01:11;;;;;;;87.40;39.20;;;;;;;-5.30;83.82;97827.39;106004;1280;137758;-83
2022/01/10 03:03:39;;;;;;;94.70;39.80;;;;;;;-5.33;83.68;97830.27;106174;1281;22558;-82
2022/01/10 03:06:05;;;;;;;90.50;38.70;;;;;;;-5.36;83.88;97831.33;106061;1280;137688;-83
2022/01/10 03:08:33;;;;;;;89.30;39.70;;;;;;;-5.39;83.90;97836.05;106245;1279;22567;-82
2022/01/10 03:11:01;;;;;;;90.80;40.70;;;;;;;-5.39;84.33;97841.86;106289;1280;24339;-82
2022/01/10 03:13:28;;;;;;;88.80;39.50;;;;;;;-5.36;84.09;97846.34;106358;1280;138785;-83
2022/01/10 03:15:55;;;;;;;86.50;37.50;;;;;;;-5.35;84.01;97845.29;106350;1279;22569;-83
2022/01/10 03:18:21;;;;;;;86.20;37.10;;;;;;;-5.31;83.88;97853.50;105946;1278;138064;-83
2022/01/10 03:20:47;;;;;;;86.00;39.60;;;;;;;-5.29;83.89;97856.13;106161;1281;25351;-83
2022/01/10 03:23:14;;;;;;;87.20;35.80;;;;;;;-5.29;83.75;97858.21;106062;1281;22645;-83
2022/01/10 03:25:40;;;;;;;89.70;37.00;;;;;;;-5.34;83.53;97862.71;106081;1281;137919;-83
2022/01/10 03:28:07;;;;;;;100.70;40.90;;;;;;;-5.40;83.36;97860.70;105990;1281;22605;-82
2022/01/10 03:30:34;;;;;;;91.60;45.60;;;;;;;-5.45;83.34;97867.20;106026;1280;137837;-83
2022/01/10 03:33:02;;;;;;;96.40;43.60;;;;;;;-5.46;83.61;97869.52;106292;1280;22584;-83
2022/01/10 03:35:32;;;;;;;91.60;39.70;;;;;;;-5.44;83.71;97875.34;105994;1280;22550;-83
2022/01/10 03:37:59;;;;;;;82.80;35.10;;;;;;;-5.42;83.85;97874.61;106165;1278;137854;-83
2022/01/10 03:40:28;;;;;;;80.70;34.30;;;;;;;-5.41;83.97;97876.05;106194;1278;22657;-83
2022/01/10 03:42:56;;;;;;;85.60;37.90;;;;;;;-5.39;83.90;97877.61;105852;1280;137981;-83
2022/01/10 03:45:22;;;;;;;84.40;37.10;;;;;;;-5.35;83.93;97875.25;106023;1279;22573;-83
2022/01/10 03:47:48;;;;;;;92.30;39.40;;;;;;;-5.34;83.96;97879.23;106169;1280;137852;-83
2022/01/10 03:50:14;;;;;;;82.60;36.40;;;;;;;-5.32;84.12;97884.20;106167;1280;22595;-83
2022/01/10 03:52:42;;;;;;;80.10;38.30;;;;;;;-5.31;84.00;97888.70;106229;1280;24290;-83
2022/01/10 03:55:09;;;;;;;79.70;36.00;;;;;;;-5.30;83.89;97890.65;106228;1278;138083;-83
2022/01/10 03:57:35;;;;;;;85.40;36.30;;;;;;;-5.27;84.05;97898.27;106145;1280;22572;-83
2022/01/10 04:00:05;;;;;;;94.40;38.00;;;;;;;-5.25;83.96;97902.37;106272;1278;137920;-82
2022/01/10 04:02:47;;;;;;;78.40;34.80;;;;;;;-5.23;84.05;97907.05;106146;1279;24444;-83
2022/01/10 04:05:16;;;;;;;78.60;36.10;;;;;;;-5.21;84.44;97908.44;106137;1279;22585;-83
2022/01/10 04:07:43;;;;;;;82.90;37.80;;;;;;;-5.18;83.96;97912.81;105848;1279;137525;-83
2022/01/10 04:10:09;;;;;;;83.00;37.10;;;;;;;-5.16;84.04;97920.02;106181;1280;25269;-83
2022/01/10 04:12:36;;;;;;;86.50;37.20;;;;;;;-5.16;83.89;97921.34;105986;1280;138033;-82
2022/01/10 04:15:03;;;;;;;97.30;39.90;;;;;;;-5.15;84.00;97926.10;106389;1280;25267;-82
2022/01/10 04:17:30;;;;;;;86.40;38.00;;;;;;;-5.15;83.65;97929.64;106184;1278;24271;-82
2022/01/10 04:19:56;;;;;;;85.40;38.00;;;;;;;-5.16;84.12;97933.78;106113;1279;137430;-83
2022/01/10 04:22:22;;;;;;;95.00;40.00;;;;;;;-5.17;83.95;97934.45;106014;1280;22588;-83
2022/01/10 04:24:49;;;;;;;94.20;38.00;;;;;;;-5.19;83.95;97934.11;106075;1280;137885;-82
2022/01/10 04:27:15;;;;;;;84.40;39.20;;;;;;;-5.19;83.79;97938.55;106198;1279;22552;-83
2022/01/10 04:29:42;;;;;;;78.50;36.90;;;;;;;-5.19;83.75;97942.06;106003;1280;25467;-82
2022/01/10 04:32:11;;;;;;;85.50;37.40;;;;;;;-5.16;84.11;97949.31;106061;1280;137507;-83
2022/01/10 04:34:37;;;;;;;85.80;35.70;;;;;;;-5.14;83.61;97953.23;106231;1280;22787;-82
2022/01/10 04:37:03;;;;;;;94.10;38.50;;;;;;;-5.13;83.87;97955.27;105936;1280;137417;-82
2022/01/10 04:39:30;;;;;;;94.60;37.80;;;;;;;-5.12;83.55;97961.79;106253;1281;25384;-83
2022/01/10 04:41:57;;;;;;;96.20;38.00;;;;;;;-5.14;83.47;97967.61;105966;1281;137736;-82
2022/01/10 04:44:24;;;;;;;80.20;39.30;;;;;;;-5.18;83.23;97970.80;106034;1281;22745;-82
2022/01/10 04:46:51;;;;;;;94.20;40.30;;;;;;;-5.21;83.19;97976.23;106140;1281;22572;-82
2022/01/10 04:49:24;;;;;;;97.40;40.10;;;;;;;-5.22;82.90;97982.33;106259;1279;138251;-83
2022/01/10 04:51:51;;;;;;;93.30;37.20;;;;;;;-5.24;83.16;97989.25;105970;1280;22577;-83
2022/01/10 04:54:18;;;;;;;98.50;38.70;;;;;;;-5.25;83.17;97990.50;106120;1279;137568;-83
2022/01/10 04:56:45;;;;;;;96.00;39.80;;;;;;;-5.27;83.33;97994.97;106136;1279;24384;-83
2022/01/10 04:59:12;;;;;;;97.00;42.40;;;;;;;-5.31;83.48;97990.34;106101;1280;24318;-83
2022/01/10 05:01:40;;;;;;;99.70;44.30;;;;;;;-5.35;83.52;97999.79;105977;1280;137829;-83
2022/01/10 05:04:08;;;;;;;89.40;42.30;;;;;;;-5.38;83.51;98006.61;106323;1280;23061;-82
2022/01/10 05:06:34;;;;;;;104.50;42.80;;;;;;;-5.41;83.15;98009.63;106193;1280;138069;-82
2022/01/10 05:09:01;;;;;;;89.20;40.90;;;;;;;-5.42;83.43;98009.86;106131;1278;22573;-82
2022/01/10 05:11:50;;;;;;;99.20;41.40;;;;;;;-5.42;83.72;98019.55;106013;1279;137600;-83
2022/01/10 05:14:16;;;;;;;92.40;40.80;;;;;;;-5.43;83.46;98018.25;106294;1279;22730;-83
2022/01/10 05:16:44;;;;;;;85.10;37.30;;;;;;;-5.44;83.48;98022.12;106071;1279;24765;-83
2022/01/10 05:19:11;;;;;;;96.50;42.90;;;;;;;-5.47;83.46;98025.80;106016;1280;137663;-83
2022/01/10 05:21:37;;;;;;;102.50;43.80;;;;;;;-5.51;83.27;98026.17;106150;1281;22548;-83
2022/01/10 05:24:04;;;;;;;95.50;39.20;;;;;;;-5.51;83.51;98029.92;105930;1279;139343;-83
2022/01/10 05:26:30;;;;;;;90.30;39.40;;;;;;;-5.53;83.56;98030.90;106124;1281;22594;-83
2022/01/10 05:28:57;;;;;;;96.60;41.10;;;;;;;-5.56;83.70;98035.67;106195;1278;24154;-83
2022/01/10 05:31:24;;;;;;;95.40;40.30;;;;;;;-5.58;83.73;98041.18;106035;1280;137640;-84
2022/01/10 05:34:02;;;;;;;92.70;39.40;;;;;;;-5.60;83.84;98045.77;106257;1280;23225;-84
2022/01/10 05:36:28;;;;;;;98.50;41.20;;;;;;;-5.63;83.76;98049.85;106140;1280;137841;-83
2022/01/10 05:38:56;;;;;;;99.60;43.20;;;;;;;-5.68;83.46;98054.77;106199;1280;22673;-84
2022/01/10 05:41:22;;;;;;;90.70;40.20;;;;;;;-5.70;84.00;98058.98;106048;1280;22721;-83
2022/01/10 05:43:49;;;;;;;99.50;40.70;;;;;;;-5.71;84.01;98062.10;105936;1281;138187;-83
2022/01/10 05:46:20;;;;;;;97.80;38.00;;;;;;;-5.72;84.17;98070.52;106174;1281;25327;-83
2022/01/10 05:48:49;;;;;;;90.20;38.80;;;;;;;-5.73;84.29;98075.58;106100;1278;137653;-83
2022/01/10 05:51:16;;;;;;;90.70;36.60;;;;;;;-5.73;84.53;98075.23;106329;1280;22730;-83
2022/01/10 05:53:43;;;;;;;84.70;35.20;;;;;;;-5.76;84.21;98081.13;106269;1280;24463;-83
2022/01/10 05:56:10;;;;;;;92.90;42.80;;;;;;;-5.80;84.04;98082.56;105943;1280;137540;-83
2022/01/10 05:58:49;;;;;;;100.20;44.80;;;;;;;-5.83;84.38;98088.20;106283;1280;22596;-83
2022/01/10 06:01:15;;;;;;;95.80;41.40;;;;;;;-5.81;84.33;98094.86;105817;1281;138356;-85
2022/01/10 06:03:45;;;;;;;90.00;38.00;;;;;;;-5.79;84.17;98099.13;105921;1281;22553;-83
2022/01/10 06:06:11;;;;;;;88.50;38.80;;;;;;;-5.79;84.07;98103.37;106035;1281;137681;-83
2022/01/10 06:08:38;;;;;;;96.70;39.20;;;;;;;-5.77;84.26;98107.77;106283;1278;22785;-83
2022/01/10 06:11:05;;;;;;;85.30;36.40;;;;;;;-5.76;84.40;98115.63;106148;1280;22710;-83
2022/01/10 06:13:36;;;;;;;85.60;37.20;;;;;;;-5.78;84.19;98128.70;106277;1280;137742;-83
2022/01/10 06:16:03;;;;;;;88.90;40.40;;;;;;;-5.81;84.15;98134.70;106034;1280;24288;-83
2022/01/10 06:18:30;;;;;;;84.30;39.20;;;;;;;-5.84;84.27;98148.36;105916;1280;138299;-83
2022/01/10 06:20:56;;;;;;;86.30;37.30;;;;;;;-5.83;84.14;98154.66;106186;1278;22559;-83
2022/01/10 06:23:23;;;;;;;79.70;36.10;;;;;;;-5.80;84.13;98167.31;105920;1279;24389;-85
2022/01/10 06:25:49;;;;;;;82.50;34.90;;;;;;;-5.79;84.27;98173.56;105821;1279;137740;-84
2022/01/10 06:28:18;;;;;;;81.50;35.10;;;;;;;-5.78;84.35;98180.70;106105;1279;22738;-84
2022/01/10 06:30:45;;;;;;;77.50;33.20;;;;;;;-5.78;83.92;98194.30;106095;1279;137616;-84
2022/01/10 06:33:12;;;;;;;82.10;34.80;;;;;;;-5.79;84.18;98199.20;106100;1280;25435;-83
2022/01/10 06:35:38;;;;;;;88.90;35.60;;;;;;;-5.83;83.94;98198.85;106377;1280;25158;-83
2022/01/10 06:38:05;;;;;;;80.60;35.30;;;;;;;-5.85;83.98;98215.46;106350;1280;138025;-83
2022/01/10 06:40:34;;;;;;;71.80;33.00;;;;;;;-5.87;83.94;98216.52;106193;1280;25627;-83
2022/01/10 06:43:00;;;;;;;77.40;33.10;;;;;;;-5.87;83.90;98217.13;106116;1279;138124;-83
2022/01/10 06:45:27;;;;;;;86.60;36.80;;;;;;;-5.88;83.84;98230.07;106028;1279;22682;-84
2022/01/10 06:47:54;;;;;;;82.70;34.60;;;;;;;-5.89;84.18;98230.90;105862;1279;137413;-84
2022/01/10 06:50:20;;;;;;;82.50;34.40;;;;;;;-5.88;84.05;98237.14;106067;1278;25135;-83
2022/01/10 06:52:47;;;;;;;87.80;36.60;;;;;;;-5.86;84.18;98246.04;106106;1279;22621;-83
2022/01/10 06:55:13;;;;;;;91.30;41.50;;;;;;;-5.86;84.25;98248.82;106055;1280;137537;-83
2022/01/10 06:57:40;;;;;;;88.50;35.70;;;;;;;-5.86;84.39;98252.71;106303;1279;25353;-83
2022/01/10 07:00:21;;;;;;;87.90;37.90;;;;;;;-5.83;84.37;98261.09;106294;1280;138732;-83
2022/01/10 07:02:50;;;;;;;84.60;37.80;;;;;;;-5.80;84.50;98268.52;106439;1279;22562;-83
2022/01/10 07:05:16;;;;;;;91.80;37.30;;;;;;;-5.77;84.49;98275.91;105951;1281;25517;-84
2022/01/10 07:07:45;;;;;;;87.00;38.70;;;;;;;-5.76;84.19;98287.29;105615;1281;137745;-85
2022/01/10 07:10:30;;;;;;;94.40;39.80;;;;;;;-5.75;84.51;98287.54;106154;1280;23295;-83
2022/01/10 07:12:58;;;;;;;92.30;40.50;;;;;;;-5.71;84.31;98289.85;106005;1280;137615;-83
2022/01/10 07:15:26;;;;;;;91.10;41.30;;;;;;;-5.70;84.18;98296.96;106215;1280;24445;-83
2022/01/10 07:17:54;;;;;;;87.30;40.00;;;;;;;-5.67;84.37;98299.20;106251;1279;138372;-83
2022/01/10 07:20:22;;;;;;;85.60;38.20;;;;;;;-5.65;83.98;98300.44;106477;1280;22568;-83
2022/01/10 07:22:48;;;;;;;80.50;33.10;;;;;;;-5.66;84.42;98307.17;106444;1281;22582;-83
2022/01/10 07:25:15;;;;;;;91.40;38.90;;;;;;;-5.64;84.35;98313.39;106335;1280;137912;-83
2022/01/10 07:27:41;;;;;;;89.00;38.90;;;;;;;-5.63;84.60;98320.17;106165;1279;24294;-83
2022/01/10 07:30:08;;;;;;;101.50;42.30;;;;;;;-5.62;84.53;98325.94;106356;1281;137892;-83
2022/01/10 07:32:34;;;;;;;93.20;42.10;;;;;;;-5.60;84.64;98333.17;106801;1277;22590;-83
2022/01/10 07:35:00;;;;;;;92.20;41.30;;;;;;;-5.58;84.71;98339.33;106543;1280;22632;-83
2022/01/10 07:37:27;;;;;;;97.70;41.20;;;;;;;-5.53;85.15;98343.45;106100;1280;137893;-83
2022/01/10 07:39:53;;;;;;;90.50;38.10;;;;;;;-5.44;85.26;98346.91;106389;1280;24286;-84
2022/01/10 07:42:19;;;;;;;86.80;38.50;;;;;;;-5.38;85.15;98348.62;106286;1279;137676;-84
2022/01/10 07:44:51;;;;;;;82.30;34.30;;;;;;;-5.35;84.94;98357.29;106259;1279;25314;-83
2022/01/10 07:47:17;;;;;;;82.90;34.90;;;;;;;-5.35;84.87;98361.92;106646;1279;23188;-83
2022/01/10 07:49:44;;;;;;;82.00;37.60;;;;;;;-5.36;85.08;98365.89;106516;1279;138190;-83
2022/01/10 07:52:10;;;;;;;76.60;33.90;;;;;;;-5.34;85.24;98366.38;106506;1281;24259;-83
2022/01/10 07:54:36;;;;;;;67.80;30.70;;;;;;;-5.31;85.28;98370.42;106502;1280;138040;-84
2022/01/10 07:57:03;;;;;;;68.20;30.30;;;;;;;-5.29;85.63;98378.35;106431;1280;24095;-85
2022/01/10 07:59:29;;;;;;;78.80;33.30;;;;;;;-5.25;85.71;98379.00;106365;1280;22551;-83
2022/01/10 08:01:56;;;;;;;69.70;29.90;;;;;;;-5.17;86.00;98382.66;106772;1279;137772;-84
2022/01/10 08:04:22;;;;;;;61.20;25.00;;;;;;;-5.10;85.91;98386.78;106242;1279;22576;-84
2022/01/10 08:06:48;;;;;;;68.80;29.10;;;;;;;-5.08;85.70;98387.64;106284;1279;137684;-84
2022/01/10 08:09:29;;;;;;;70.60;28.70;;;;;;;-5.06;86.01;98399.52;106268;1279;25439;-84
2022/01/10 08:11:59;;;;;;;61.10;27.30;;;;;;;-5.01;85.98;98405.72;106225;1279;138681;-85
2022/01/10 08:14:28;;;;;;;65.50;26.80;;;;;;;-4.93;86.29;98406.46;106097;1281;25265;-83
2022/01/10 08:16:56;;;;;;;42.90;18.00;;;;;;;-4.86;86.72;98408.92;106480;1280;25388;-83
2022/01/10 08:19:22;;;;;;;38.10;16.30;;;;;;;-4.81;86.69;98416.08;106309;1281;137551;-83
2022/01/10 08:21:49;;;;;;;42.00;17.50;;;;;;;-4.78;86.73;98425.60;106341;1279;22557;-83
2022/01/10 08:24:16;;;;;;;41.60;17.20;;;;;;;-4.73;86.78;98428.25;106331;1279;138490;-82
2022/01/10 08:26:42;;;;;;;37.50;17.30;;;;;;;-4.68;87.18;98429.34;106366;1279;25258;-82
2022/01/10 08:29:10;;;;;;;36.60;15.30;;;;;;;-4.58;87.42;98438.14;106385;1279;22601;-82
2022/01/10 08:31:36;;;;;;;37.50;15.70;;;;;;;-4.49;87.31;98439.41;106231;1279;138609;-82
2022/01/10 08:34:04;;;;;;;34.00;15.60;;;;;;;-4.43;87.48;98441.94;106620;1280;22607;-83
2022/01/10 08:36:32;;;;;;;28.90;11.70;;;;;;;-4.39;87.32;98445.11;106306;1280;137688;-83
2022/01/10 08:38:58;;;;;;;40.20;17.20;;;;;;;-4.34;87.44;98450.20;106383;1280;22574;-83
2022/01/10 08:41:24;;;;;;;35.30;16.40;;;;;;;-4.28;87.46;98456.80;106170;1280;22561;-83
2022/01/10 08:43:51;;;;;;;37.00;16.70;;;;;;;-4.23;87.32;98453.06;106008;1279;138507;-83
2022/01/10 08:46:17;;;;;;;33.60;15.50;;;;;;;-4.17;87.33;98456.48;106180;1280;25477;-82
2022/01/10 08:48:44;;;;;;;33.10;15.90;;;;;;;-4.08;87.43;98454.67;106385;1279;138089;-82
2022/01/10 08:51:10;;;;;;;31.00;14.60;;;;;;;-4.00;87.70;98458.00;106417;1280;22611;-82
2022/01/10 08:53:37;;;;;;;33.20;15.20;;;;;;;-3.94;87.26;98460.70;106300;1277;25395;-83
2022/01/10 08:56:04;;;;;;;35.70;16.80;;;;;;;-3.92;86.93;98466.39;106223;1279;137788;-84
2022/01/10 08:58:32;;;;;;;40.30;16.70;;;;;;;-3.87;87.25;98465.94;106443;1279;22544;-83
2022/01/10 09:01:00;;;;;;;40.70;18.60;;;;;;;-3.78;87.26;98473.20;106542;1279;138164;-83
2022/01/10 09:03:27;;;;;;;36.60;17.20;;;;;;;-3.70;86.94;98473.78;106483;1279;22624;-83
2022/01/10 09:05:55;;;;;;;35.50;16.40;;;;;;;-3.63;87.32;98483.36;106267;1280;137735;-83
2022/01/10 09:08:25;;;;;;;34.50;17.10;;;;;;;-3.58;86.93;98484.48;106448;1280;24305;-83
2022/01/10 09:10:53;;;;;;;38.90;17.70;;;;;;;-3.52;86.93;98490.10;106246;1280;22655;-82
2022/01/10 09:13:21;;;;;;;46.60;19.60;;;;;;;-3.51;86.45;98491.88;106336;1280;137970;-81
2022/01/10 09:15:47;;;;;;;40.10;19.20;;;;;;;-3.48;86.79;98487.91;106190;1280;22633;-78
2022/01/10 09:18:14;;;;;;;43.00;19.80;;;;;;;-3.43;86.67;98493.61;106154;1280;138638;-81
2022/01/10 09:20:42;;;;;;;40.70;19.50;;;;;;;-3.36;86.34;98493.29;106434;1280;22600;-84
2022/01/10 09:23:09;;;;;;;44.40;19.20;;;;;;;-3.27;86.73;98496.91;106400;1279;23707;-81
2022/01/10 09:25:35;;;;;;;36.50;18.60;;;;;;;-3.19;86.46;98500.83;106358;1279;137396;-85
2022/01/10 09:28:05;;;;;;;36.00;15.50;;;;;;;-3.15;86.19;98502.13;106486;1279;25378;-81
2022/01/10 09:30:31;;;;;;;45.50;20.00;;;;;;;-3.12;85.56;98499.14;106323;1279;138350;-78
2022/01/10 09:32:58;;;;;;;42.30;21.00;;;;;;;-3.09;85.47;98497.99;106501;1279;23492;-82
2022/01/10 09:35:25;;;;;;;40.00;18.30;;;;;;;-3.02;86.02;98499.41;106151;1280;25371;-82
2022/01/10 09:37:51;;;;;;;40.00;18.50;;;;;;;-2.96;85.42;98493.60;106053;1280;138049;-82
2022/01/10 09:40:18;;;;;;;39.90;17.90;;;;;;;-2.90;85.63;98497.42;106382;1280;22625;-81
2022/01/10 09:42:46;;;;;;;46.40;20.40;;;;;;;-2.84;85.74;98499.48;106250;1279;138816;-81
2022/01/10 09:45:12;;;;;;;45.70;19.90;;;;;;;-2.80;85.38;98499.30;106089;1281;30485;-80
2022/01/10 09:47:38;;;;;;;40.20;18.80;;;;;;;-2.76;85.30;98507.27;105368;1282;300175;-81
2022/01/10 09:50:07;;;;;;;44.00;20.90;;;;;;;-2.70;85.17;98507.50;105859;1281;137888;-80
2022/01/10 09:52:35;;;;;;;44.10;20.30;;;;;;;-2.62;84.94;98511.14;106136;1281;22641;-81
2022/01/10 09:55:02;;;;;;;47.70;20.20;;;;;;;-2.55;84.94;98517.61;105981;1280;138037;-79
2022/01/10 09:57:28;;;;;;;41.60;20.60;;;;;;;-2.50;84.56;98515.54;106212;1280;22619;-80
2022/01/10 09:59:54;;;;;;;44.40;20.90;;;;;;;-2.46;84.64;98519.95;107082;1280;23156;-82
2022/01/10 10:02:20;;;;;;;41.60;19.10;;;;;;;-2.38;84.93;98520.52;106676;1280;137400;-78
2022/01/10 10:04:47;;;;;;;36.20;17.80;;;;;;;-2.31;84.78;98528.08;107054;1279;23295;-77
2022/01/10 10:07:13;;;;;;;43.60;20.60;;;;;;;-2.27;84.23;98524.89;106415;1279;137535;-80
2022/01/10 10:09:40;;;;;;;44.90;23.20;;;;;;;-2.24;83.93;98526.90;106255;1279;25393;-82
2022/01/10 10:12:07;;;;;;;45.00;21.70;;;;;;;-2.20;83.81;98530.55;106468;1279;22553;-81
2022/01/10 10:14:33;;;;;;;44.70;19.80;;;;;;;-2.16;83.73;98529.39;106149;1277;137579;-81
2022/01/10 10:17:07;;;;;;;41.40;20.20;;;;;;;-2.09;83.75;98530.48;106264;1277;23306;-81
2022/01/10 10:19:34;;;;;;;41.90;20.40;;;;;;;-2.04;83.51;98532.79;106021;1279;137725;-81
2022/01/10 10:22:01;;;;;;;41.20;19.50;;;;;;;-2.02;83.38;98535.45;107474;1278;22701;-81
2022/01/10 10:24:29;;;;;;;38.60;20.00;;;;;;;-2.01;83.37;98533.00;107223;1277;22414;-81
2022/01/10 10:26:57;;;;;;;39.80;19.20;;;;;;;-2.00;82.98;98538.41;106687;1278;137490;-80
2022/01/10 10:29:24;;;;;;;41.50;19.80;;;;;;;-1.98;82.98;98541.75;106411;1280;22555;-80
2022/01/10 10:31:55;;;;;;;39.60;18.80;;;;;;;-1.94;83.19;98540.42;106101;1280;138370;-80
2022/01/10 10:34:27;;;;;;;41.80;20.30;;;;;;;-1.88;83.03;98544.77;106190;1279;25517;-80
2022/01/10 10:37:11;;;;;;;37.00;17.40;;;;;;;-1.82;83.21;98545.00;105787;1279;137586;-80
2022/01/10 10:39:43;;;;;;;35.70;17.00;;;;;;;-1.77;82.94;98542.50;105864;1279;22826;-80
2022/01/10 10:42:12;;;;;;;41.40;18.10;;;;;;;-1.74;82.95;98546.30;106286;1279;25485;-80
2022/01/10 10:44:42;;;;;;;40.70;18.40;;;;;;;-1.73;83.04;98550.23;106200;1279;137839;-80
2022/01/10 10:47:14;;;;;;;35.00;16.80;;;;;;;-1.68;83.19;98552.09;106512;1280;22621;-80
2022/01/10 10:49:45;;;;;;;36.20;17.10;;;;;;;-1.64;82.68;98553.66;106286;1280;137848;-80
2022/01/10 10:52:13;;;;;;;33.90;16.50;;;;;;;-1.63;82.51;98550.46;106115;1280;24515;-79
2022/01/10 10:54:40;;;;;;;35.70;16.20;;;;;;;-1.61;82.73;98550.96;105870;1279;22563;-81
2022/01/10 10:57:09;;;;;;;30.50;14.70;;;;;;;-1.59;82.71;98554.80;106082;1279;137309;-81
2022/01/10 10:59:39;;;;;;;34.00;15.90;;;;;;;-1.58;82.46;98559.30;106383;1279;22689;-81
2022/01/10 11:02:06;;;;;;;41.10;18.50;;;;;;;-1.60;82.54;98561.85;106173;1279;137474;-80
2022/01/10 11:04:32;;;;;;;34.70;17.50;;;;;;;-1.57;82.61;98568.20;106099;1279;25369;-80
2022/01/10 11:06:59;;;;;;;34.30;16.80;;;;;;;-1.56;82.42;98570.33;106030;1279;138126;-80
2022/01/10 11:09:25;;;;;;;37.60;18.20;;;;;;;-1.52;82.45;98576.67;106019;1280;23927;-81
2022/01/10 11:11:52;;;;;;;33.70;16.30;;;;;;;-1.46;82.46;98574.86;106213;1279;22583;-80
2022/01/10 11:14:22;;;;;;;33.00;16.30;;;;;;;-1.44;82.13;98573.39;105796;1281;137545;-80
2022/01/10 11:16:50;;;;;;;31.70;15.10;;;;;;;-1.43;82.33;98579.70;106160;1279;24770;-80
2022/01/10 11:19:19;;;;;;;26.80;13.90;;;;;;;-1.41;82.46;98582.50;106022;1279;137544;-80
2022/01/10 11:21:46;;;;;;;;;;;;;;;-1.41;82.57;98589.38;106165;1279;24335;-80
2022/01/10 11:24:43;;;;;;;32.70;17.10;;;;;;;-1.39;82.35;98595.45;106301;1279;23311;-80